Tiempo atmosférico en la estación meteorológica de Tenerife Norte Aeropuerto, Santa Cruz de Tenerife (632 m.)



Fecha
DESCASC
Temp. máxima en grados centígrados (hora)
DESCASC
Temp. mínima en grados centígrados (hora)
DESCASC
Temp. media en grados centígrados
DESCASC
Racha de viento máxima en m/sg (hora)
DESCASC
Velocidad máxima media en intervalos de 10 minutos(hora)
DESCASC
Precipitaciones diarias en mm
DESCASC
Precipitaciones de 00:00 a 06:00 en mm
DESCASC
Precipitaciones de 06:00 a 12:00 en mm
DESCASC
Precipitaciones de 12:00 a 18:00 en mm
DESCASC
Precipitaciones de 18:00 a 24:00 en mm
DESCASC
17-10-2019 22.2 (14:30) 14 (08:30) 18.1 8.89 (15:30) 5.56 (09:30) 0 0 0 0 0
16-10-2019 20.2 (11:40) 15 (23:59) 17.6 7.78 (16:10) 5.28 (15:50) 0 0 0 0 0
15-10-2019 21.3 (17:00) 14.3 (02:50) 17.8 9.17 (12:30) 6.39 (12:30) 0 0 0 0 0
14-10-2019 21.5 (15:50) 15.5 (08:10) 18.5 10.28 (16:20) 7.78 (20:00) 0 0 0 0 0
13-10-2019 23.5 (16:20) 13.3 (00:00) 18.4 9.17 (16:50) 6.11 (17:00) 0 0 0 0 0
12-10-2019 22.8 (14:50) 14.3 (00:00) 18.5 10.83 (16:50) 7.78 (00:20) 0 0 0 0 0
10-10-2019 22.9 (14:30) 15.7 (00:00) 19.3 10.28 (11:50) 7.22 (11:50) 0 0 0 0 0
09-10-2019 22 (15:10) 15.7 (00:00) 18.8 11.39 (07:30) 8.33 (06:20) 0 0 0 0 0
08-10-2019 22.2 (15:00) 16.2 (00:00) 19.2 12.78 (17:00) 9.72 (16:50) 0 0 0 0 0
07-10-2019 24.2 (15:00) 15.9 (00:00) 20.1 12.5 (21:00) 9.44 (21:20) 0 0 0 0 0
06-10-2019 23.8 (14:40) 16.9 (00:00) 20.3 11.67 (03:30) 7.78 (03:40) 0 0 0 0 0
05-10-2019 22.5 (13:10) 17.1 (03:10) 19.8 12.78 (00:50) 10.56 (00:40) 0 0 0 0 0
04-10-2019 26.7 (01:20) 17.1 (00:00) 21.9 13.89 (17:30) 11.67 (17:30) 0 0 0 0 0
03-10-2019 31.1 (14:30) 21.3 (00:00) 26.2 7.78 (17:10) 5.28 (16:20) 0 0 0 0 0
02-10-2019 32.6 (13:30) 23.7 (00:00) 28.1 9.17 (14:40) 5.83 (14:50) 0 0 0 0 0
01-10-2019 33.9 (13:30) 21.9 (00:00) 27.9 8.33 (14:30) 6.11 (15:00) 0 0 0 0 0
30-09-2019 33.7 (13:50) 15.1 (00:00) 24.4 10.28 (15:20) 8.33 (16:50) 0 0 0 0 0
29-09-2019 27.8 (16:40) 17.2 (00:00) 22.5 11.39 (05:30) 8.61 (05:30) 0 0 0 0 0
28-09-2019 24.2 (14:40) 16.1 (00:00) 20.2 10.83 (03:20) 7.78 (22:40) 0 0 0 0 0
27-09-2019 23.2 (13:40) 16.5 (00:00) 19.9 11.67 (05:00) 8.33 (04:50) 0 0 0 0 0
26-09-2019 23.7 (13:40) 16.7 (00:00) 20.2 10.28 (18:20) 7.78 (18:50) 0 0 0 0 0
25-09-2019 23.8 (13:40) 16.7 (00:00) 20.3 15 (06:00) 8.89 (04:50) 0 0 0 0 0
24-09-2019 23.6 (15:30) 16.1 (00:00) 19.9 11.67 (08:40) 8.33 (19:20) 0 0 0 0 0
23-09-2019 23.7 (15:40) 16.1 (00:00) 19.9 11.67 (17:30) 8.33 (14:50) 0 0 0 0 0
22-09-2019 25.5 (14:00) 15.9 (00:00) 20.7 9.17 (11:50) 6.67 (11:40) 0 0 0 0 0
21-09-2019 24.8 (13:00) 14.1 (00:00) 19.4 8.89 (11:40) 6.67 (00:10) 0 0 0 0 0
20-09-2019 24.2 (13:40) 16.7 (00:00) 20.5 11.39 (00:10) 8.61 (00:10) 0 0 0 0 0
19-09-2019 23.2 (16:10) 16.1 (00:00) 19.7 12.78 (13:20) 8.61 (13:20) 0 0 0 0 0

Gráficas

Temp. máximas Temp. mínimas Temp. medias Precipitaciones Rachas de viento máximas Velocidades máximas media en intervalos de 10 minutos

Datos horarios

Fecha y hora oficial Temperatura (ºC) Velocidad del viento (km/h) Dirección del viento Racha (km/h) Dirección de racha Precipitación (mm) Presión (hPa) Tendencia (hPa) Humedad (%)
2019-10-18 23:00:00 16.5 22 Oeste 35 Noroeste 0 949.2 0.7 87
2019-10-18 22:00:00 17.1 26 Noroeste 39 Oeste 0 949 0.6 92
2019-10-18 21:00:00 16.6 23 Noroeste 32 Oeste 0 948.7 0.6 93
2019-10-18 20:00:00 16.9 24 Oeste 35 Oeste 0 948.5 -0.2 90
2019-10-18 19:00:00 17.7 25 Oeste 35 Noroeste 0 948.4 -0.4 85
2019-10-18 18:00:00 18.9 26 Noroeste 35 Noroeste 0 948.1 -1.1 76
2019-10-18 17:00:00 19.5 26 Noroeste 39 Oeste 0 948.7 -1.3 74
2019-10-18 16:00:00 20.1 30 Noroeste 42 Noroeste 0 948.8 -1.7 69
2019-10-18 15:00:00 20.7 23 Noroeste 35 Noroeste 0 949.2 -1.8 66
2019-10-18 14:00:00 20.3 23 Noroeste 37 Noroeste 0 950 -0.9 68
2019-10-18 13:00:00 20.4 24 Noroeste 35 Oeste 0 950.5 0 66
2019-10-18 12:00:00 19.6 23 Noroeste 33 Noroeste 0 951 0.9 71
2019-10-18 11:00:00 18.8 21 Noroeste 33 Oeste 0 950.9 1.2 73
2019-10-18 10:00:00 18.2 19 Noroeste 32 Noroeste 0 950.5 1 79
2019-10-18 09:00:00 16.4 17 Noroeste 30 Oeste 0 950.1 0.8 94
2019-10-18 08:00:00 16.2 21 Noroeste 35 Oeste 0 949.7 0.1 96
2019-10-18 07:00:00 16.3 14 Noroeste 39 Noroeste 0 949.5 -0.5 93
2019-10-18 06:00:00 16.2 23 Noroeste 39 Oeste 0 949.3 -1.1 92
2019-10-18 05:00:00 16 22 Noroeste 37 Oeste 0 949.6 -1.2 92
2019-10-18 04:00:00 15.7 19 Oeste 32 Noroeste 0 950 -1.3 93
2019-10-18 03:00:00 15.7 19 Noroeste 32 Noroeste 0 950.4 -1.1 93
2019-10-18 02:00:00 15.6 17 Noroeste 26 Noroeste 0 950.8 -0.8 92
2019-10-18 01:00:00 14.8 15 Oeste 24 Noroeste 0 951.3 0.1 92
2019-10-18 00:00:00 14.7 12 Oeste 18 Oeste 0 951.5 0.9 85
2019-10-17 23:00:00 15.3 9 Oeste 11 Oeste 0 951.6 1.5 84
2019-10-17 22:00:00 15.5 7 Oeste 11 Oeste 0 951.2 1.2 81
2019-10-17 21:00:00 16.2 2 Oeste 11 Este 0 950.6 0.6 73
2019-10-17 20:00:00 17.2 6 Sudeste 11 Este 0 950.1 0.2 72
2019-10-17 19:00:00 18 10 Este 18 Sudeste 0 950 0 71
2019-10-17 18:00:00 19.2 13 Sudeste 21 Este 0 950 -0.4 67
2019-10-17 17:00:00 19.6 11 Sudeste 24 Este 0 949.9 -1.2 66
2019-10-17 16:00:00 20.6 19 Este 32 Sudeste 0 950 -1.5 63
2019-10-17 15:00:00 21.4 17 Este 28 Este 0 950.4 -1.5 57
2019-10-17 14:00:00 21.1 8 Oeste 24 Noroeste 0 951.1 -0.7 51
2019-10-17 13:00:00 21.6 11 Noroeste 24 Norte 0 951.5 0 52
2019-10-17 12:00:00 20.1 12 Norte 22 Norte 0 951.9 1 60
2019-10-17 11:00:00 18.8 12 Noroeste 21 Noroeste 0 951.8 1.2 66
2019-10-17 10:00:00 17.5 13 Noroeste 26 Oeste 0 951.5 1.1 73
2019-10-17 09:00:00 15.7 15 Oeste 22 Noroeste 0 950.9 0.6 82
2019-10-17 08:00:00 14.4 8 Oeste 11 Oeste 0 950.6 0.3 87
2019-10-17 07:00:00 14.5 6 Oeste 11 Oeste 0 950.4 0 86
2019-10-17 06:00:00 14.6 7 Oeste 11 Oeste 0 950.3 -0.4 86
2019-10-17 05:00:00 15 8 Oeste 15 Oeste 0 950.3 -0.5 86
2019-10-17 04:00:00 15 11 Oeste 15 Oeste 0 950.4 -1.2 86
2019-10-17 03:00:00 15.6 10 Oeste 18 Noroeste 0 950.7 -1.1 83
2019-10-17 02:00:00 15.4 10 Oeste 15 Oeste 0 950.8 -1 81
2019-10-17 01:00:00 15.1 5 Sudoeste 9 Sur 0 951.6 0.1 84
2019-10-17 00:00:00 15.1 8 Sur 11 Sur 0 951.8 1 84
2019-10-16 23:00:00 15.2 7 Sur 9 Sur 0 951.8 1.6 82
2019-10-16 22:00:00 15.8 6 Sur 9 Sur 0 951.5 1.5 70
2019-10-16 21:00:00 16.8 0 Calma 11 Norte 0 950.8 0.8 65
2019-10-16 20:00:00 17.2 5 Este 17 Sudeste 0 950.2 0.2 82
2019-10-16 19:00:00 17.8 13 Este 22 Sudeste 0 950 -0.2 77
2019-10-16 18:00:00 18.3 15 Este 22 Este 0 950 -0.2 79
2019-10-16 17:00:00 18.5 15 Este 28 Este 0 950 -0.9 75
2019-10-16 16:00:00 19.4 15 Este 26 Este 0 950.2 -1.4 72
2019-10-16 15:00:00 18.7 18 Este 26 Sudeste 0 950.2 -1.6 75
2019-10-16 14:00:00 18.8 17 Este 26 Nordeste 0 950.9 -0.7 75
2019-10-16 13:00:00 19.1 15 Este 22 Este 0 951.6 0.3 78
2019-10-16 12:00:00 19.5 8 Norte 18 Norte 0 951.8 1.7 66
2019-10-16 11:00:00 18.9 6 Norte 15 Este 0 951.6 1.2 74
2019-10-16 10:00:00 17.8 3 Nordeste 11 Sudeste 0 951.3 1.6 78
2019-10-16 09:00:00 17.4 4 Norte 9 Nordeste 0 950.1 0.5 88
2019-10-16 08:00:00 16 7 Sur 11 Sur 0 950.4 0.4 93
2019-10-16 07:00:00 15.9 7 Sur 13 Sur 0 949.7 -0.6 94
2019-10-16 06:00:00 15.9 7 Sudeste 11 Sudeste 0 949.6 -1.1 94
2019-10-16 05:00:00 15.7 7 Sudeste 13 Sudeste 0 950 -1 93
2019-10-16 04:00:00 15.5 8 Sudeste 13 Sudeste 0 950.3 -1.1 93
2019-10-16 03:00:00 15.4 8 Sudeste 13 Sudeste 0 950.7 -1 91
2019-10-16 02:00:00 15.6 10 Sudeste 17 Sudeste 0 951 -0.6 87
2019-10-16 01:00:00 15.4 9 Sur 13 Sudeste 0 951.4 0 86
2019-10-16 00:00:00 16.1 8 Sudeste 15 Sudeste 0 951.7 0.8 84
2019-10-15 23:00:00 16.2 8 Sudeste 15 Sudeste 0 951.6 1.2 84
2019-10-15 22:00:00 16.2 11 Este 17 Este 0 951.4 1.5 81
2019-10-15 21:00:00 16.2 11 Este 18 Este 0 950.9 1.5 79
2019-10-15 20:00:00 17.1 11 Norte 21 Norte 0 950.4 0.9 77
2019-10-15 19:00:00 18.4 10 Norte 26 Noroeste 0 949.9 -0.2 73
2019-10-15 18:00:00 20 19 Noroeste 30 Oeste 0 949.4 -1.2 68
2019-10-15 17:00:00 20.9 11 Noroeste 24 Este 0 949.5 -1.6 64
2019-10-15 16:00:00 19.7 15 Este 30 Este 0 950.1 -1.7 69
2019-10-15 15:00:00 18.5 18 Este 32 Este 0 950.6 -1.5 75
2019-10-15 14:00:00 20.5 18 Este 30 Este 0 951.1 -0.7 67
2019-10-15 13:00:00 19.3 18 Este 33 Este 0 951.8 0.3 71
2019-10-15 12:00:00 18.6 16 Este 26 Este 0 952.1 1 72
2019-10-15 11:00:00 17.9 12 Este 21 Este 0 951.8 1.1 78
2019-10-15 10:00:00 17.8 13 Este 18 Este 0 951.5 1 77
2019-10-15 09:00:00 16.2 11 Este 17 Este 0 951.1 0.7 84
2019-10-15 08:00:00 16 6 Este 11 Este 0 950.7 0.4 91
2019-10-15 07:00:00 16.2 0 Calma 11 Noroeste 0 950.5 -0.2 93
2019-10-15 06:00:00 16.2 8 Noroeste 13 Noroeste 0 950.4 -0.5 91
2019-10-15 05:00:00 15.9 4 Oeste 13 Noroeste 0 950.3 -1 92
2019-10-15 04:00:00 16 8 Noroeste 17 Norte 0 950.7 -1.1 91
2019-10-15 03:00:00 14.8 10 Oeste 15 Oeste 0 950.9 -1 87
2019-10-15 02:00:00 15.1 9 Noroeste 17 Noroeste 0 951.3 -0.4 84
2019-10-15 01:00:00 15.8 13 Noroeste 22 Oeste 0 951.8 0.4 85
2019-10-15 00:00:00 16 16 Oeste 26 Oeste 0 951.9 1.1 88
2019-10-14 23:00:00 16 19 Noroeste 35 Oeste 0 951.7 1.6 87
2019-10-14 22:00:00 16.1 16 Noroeste 33 Noroeste 0 951.4 1.2 88
2019-10-14 21:00:00 16.4 23 Noroeste 35 Oeste 0 950.8 0.6 87
2019-10-14 20:00:00 16.8 28 Oeste 37 Oeste 0 950.1 -0.3 85
2019-10-14 19:00:00 18.4 24 Noroeste 30 Noroeste 0 950.2 -0.1 71
2019-10-14 18:00:00 19.8 23 Noroeste 32 Noroeste 0 950.2 -0.3 63
2019-10-14 17:00:00 20.4 19 Noroeste 37 Noroeste 0 950.4 -1 60
2019-10-14 16:00:00 20.9 22 Noroeste 35 Noroeste 0 950.3 -1.1 60
2019-10-14 15:00:00 20.4 21 Noroeste 33 Noroeste 0 950.5 -1 65
2019-10-14 14:00:00 19.8 17 Noroeste 28 Noroeste 0 951.4 0.2 71
2019-10-14 13:00:00 19.1 20 Noroeste 32 Noroeste 0 951.4 0.8 80
2019-10-14 12:00:00 19 17 Noroeste 24 Oeste 0 951.5 1.5 84
2019-10-14 11:00:00 18.4 19 Noroeste 28 Oeste 0 951.2 1.5 85
2019-10-14 10:00:00 17.3 16 Oeste 28 Noroeste 0 950.6 1.4 88
2019-10-14 09:00:00 16.1 15 Noroeste 24 Noroeste 0 950 1.3 94
2019-10-14 08:00:00 15.8 13 Noroeste 21 Oeste 0 949.7 1.1 98
2019-10-14 07:00:00 16.5 12 Noroeste 18 Oeste 0 949.2 0.6 97
2019-10-14 06:00:00 16.2 15 Oeste 21 Oeste 0 948.7 0 96
2019-10-14 05:00:00 16.6 12 Oeste 17 Oeste 0 948.6 -0.3 94
2019-10-14 04:00:00 17.1 10 Noroeste 21 Norte 0 948.6 -0.7 92
2019-10-14 03:00:00 17 12 Noroeste 22 Noroeste 0 948.7 -0.9 95
2019-10-14 02:00:00 17.2 14 Noroeste 18 Oeste 0 948.9 -0.5 96
2019-10-14 01:00:00 17.1 10 Oeste 15 Oeste 0 949.3 0.4 92
2019-10-14 00:00:00 16.6 8 Oeste 11 Oeste 0 949.6 1.3 91
2019-10-13 23:00:00 15.5 8 Oeste 17 Noroeste 0 949.4 1.7 90
2019-10-13 22:00:00 16.1 10 Oeste 13 Noroeste 0 948.9 1.4 85
2019-10-13 21:00:00 17.3 5 Oeste 13 Noroeste 0 948.3 1 83
2019-10-13 20:00:00 18.2 7 Noroeste 21 Noroeste 0 947.7 0.9 74
2019-10-13 19:00:00 19.7 13 Noroeste 24 Noroeste 0 947.5 0.8 68
2019-10-13 18:00:00 20.4 14 Noroeste 28 Noroeste 0 947.3 0.5 65
2019-10-13 17:00:00 22.2 22 Oeste 33 Noroeste 0 946.8 0 54
2019-10-13 16:00:00 22.6 15 Oeste 32 Oeste 0 946.7 -0.2 48
2019-10-13 15:00:00 22.3 16 Oeste 30 Noroeste 0 946.8 -0.1 56
2019-10-13 14:00:00 21.8 17 Oeste 32 Noroeste 0 946.8 -0.1 60
2019-10-13 13:00:00 20.3 17 Noroeste 24 Noroeste 0 946.9 0.3 63
2019-10-13 12:00:00 20.9 9 Este 18 Sudeste 0 946.9 0.9 70
2019-10-13 11:00:00 19.9 10 Noroeste 22 Oeste 0 946.9 1.2 64
2019-10-13 10:00:00 18.6 9 Oeste 17 Oeste 0 946.6 1 70
2019-10-13 09:00:00 16.3 11 Oeste 15 Oeste 0 946 0.8 78
2019-10-13 08:00:00 15.5 10 Sudoeste 15 Sudoeste 0 945.7 0.6 80
2019-10-13 07:00:00 15.7 8 Sudoeste 13 Oeste 0 945.6 0.4 84
2019-10-13 06:00:00 15.4 12 Oeste 18 Sudoeste 0 945.2 -0.4 84
2019-10-13 05:00:00 13.8 3 Sudoeste 9 Sur 0 945.1 -1.1 91
2019-10-13 04:00:00 14.7 5 Sur 9 Sur 0 945.2 -1.1 88
2019-10-13 03:00:00 13.8 3 Noroeste 9 Sudoeste 0 945.6 -1 86
2019-10-13 02:00:00 15.2 9 Sudoeste 11 Sudoeste 0 946.2 -0.4 85
2019-10-13 01:00:00 15.5 8 Oeste 11 Oeste 0 946.3 0 86
2019-10-13 00:00:00 15.6 6 Sudoeste 11 Noroeste 0 946.6 0.6 86
2019-10-12 23:00:00 16.7 11 Noroeste 18 Noroeste 0 946.6 1.2 87
2019-10-12 22:00:00 17.5 10 Noroeste 18 Noroeste 0 946.3 0.8 83
2019-10-12 21:00:00 17.2 12 Noroeste 24 Noroeste 0 946 0.4 85
2019-10-12 20:00:00 17.3 16 Noroeste 26 Oeste 0 945.4 -0.5 83
2019-10-12 19:00:00 18.4 18 Noroeste 32 Noroeste 0 945.5 -0.4 75
2019-10-12 18:00:00 20 19 Noroeste 30 Oeste 0 945.6 -0.5 67
2019-10-12 17:00:00 20.7 17 Oeste 39 Noroeste 0 945.9 -0.8 64
2019-10-12 16:00:00 21.6 20 Noroeste 32 Noroeste 0 945.9 -1.4 60
2019-10-12 15:00:00 22.2 17 Noroeste 28 Noroeste 0 946.1 -1.7 58
2019-10-12 14:00:00 21 10 Sudeste 24 Este 0 946.7 -1 64
2019-10-12 13:00:00 21.7 12 Este 26 Sudeste 0 947.3 -0.1 60
2019-10-12 12:00:00 21 8 Este 18 Nordeste 0 947.8 0.9 64
2019-10-12 11:00:00 19.2 5 Nordeste 18 Noroeste 0 947.7 1 67
2019-10-12 10:00:00 18.4 12 Noroeste 28 Noroeste 0 947.4 0.9 70
2019-10-12 09:00:00 18 14 Noroeste 28 Noroeste 0 946.9 0.5 77
2019-10-12 08:00:00 16.9 18 Noroeste 30 Oeste 0 946.7 0.4 79
2019-10-12 07:00:00 15.9 14 Noroeste 24 Oeste 0 946.5 -0.1 82
2019-10-12 06:00:00 15.4 14 Noroeste 21 Noroeste 0 946.4 -0.6 84
2019-10-12 05:00:00 15.9 13 Noroeste 22 Noroeste 0 946.3 -1 80
2019-10-12 04:00:00 16.8 17 Noroeste 30 Noroeste 0 946.6 -1.2 78
2019-10-12 03:00:00 16.9 18 Noroeste 37 Noroeste 0 947 -1 82
2019-10-12 02:00:00 16.7 26 Noroeste 37 Noroeste 0 947.3 -0.8 82
2019-10-12 01:00:00 17.2 24 Noroeste 37 Noroeste 0 947.8 0.1 87
2019-10-12 00:00:00 17.2 22 Noroeste 33 Noroeste 0 948 1 82
2019-10-11 23:00:00 17.6 19 Noroeste 35 Noroeste 0 948.1 1.5 84
2019-10-11 22:00:00 17.8 25 Noroeste 37 Noroeste 0 947.7 1.5 90
2019-10-11 21:00:00 17.9 20 Noroeste 33 Noroeste 0 947 0.9 87
2019-10-11 20:00:00 17.9 20 Noroeste 42 Oeste 0 946.6 0.2 86
2019-10-11 19:00:00 18.3 25 Noroeste 35 Noroeste 0 946.2 -0.2 87
2019-10-11 18:00:00 19.5 23 Oeste 32 Oeste 0 946.1 -0.7 74
2019-10-11 17:00:00 19.7 22 Noroeste 35 Noroeste 0 946.4 -0.9 71
2019-10-11 16:00:00 19.9 25 Noroeste 37 Noroeste 0 946.4 -1.7 71
2019-10-11 15:00:00 20.1 23 Noroeste 33 Noroeste 0 946.8 -1.7 68
2019-10-11 14:00:00 21.4 21 Noroeste 30 Noroeste 0 947.3 -1.2 64
2019-10-11 13:00:00 20.5 21 Noroeste 30 Oeste 0 948.1 0 68
2019-10-11 12:00:00 19.9 20 Noroeste 30 Noroeste 0 948.5 1.1 74
2019-10-11 11:00:00 20.2 13 Noroeste 24 Noroeste 0 948.5 1.6 74
2019-10-11 10:00:00 19.1 17 Noroeste 37 Oeste 0 948.1 1.8 82
2019-10-11 09:00:00 17.4 21 Oeste 30 Oeste 0 947.4 1 86
2019-10-11 08:00:00 16.6 20 Oeste 33 Oeste 0 946.9 0.4 87
2019-10-11 07:00:00 16.5 28 Noroeste 37 Oeste 0 946.3 -0.3 93
2019-10-11 06:00:00 15.1 13 Oeste 21 Oeste 0 946.4 -0.4 90
2019-10-11 05:00:00 15.3 12 Oeste 24 Oeste 0 946.5 -0.7 89
2019-10-11 04:00:00 15.1 17 Oeste 30 Noroeste 0 946.6 -0.8 95
2019-10-11 03:00:00 16.5 21 Noroeste 30 Noroeste 0 946.8 -0.8 94
2019-10-11 02:00:00 17 20 Noroeste 33 Oeste 0 947.2 -0.5 93
2019-10-11 01:00:00 17 22 Noroeste 30 Noroeste 0 947.4 0 93
2019-10-11 00:00:00 17.3 20 Noroeste 26 Oeste 0 947.6 0.7 92
2019-10-10 23:00:00 17.6 13 Noroeste 22 Noroeste 0 947.7 1.4 91
2019-10-10 22:00:00 18 13 Noroeste 18 Oeste 0 947.4 1.3 85
2019-10-10 21:00:00 18 13 Noroeste 22 Noroeste 0 946.9 1.1 87
2019-10-10 20:00:00 18.2 17 Noroeste 26 Noroeste 0 946.3 0.4 84
2019-10-10 19:00:00 19 18 Noroeste 30 Oeste 0 946.1 0.1 78
2019-10-10 18:00:00 20.5 21 Oeste 32 Oeste 0 945.8 -0.4 69
2019-10-10 17:00:00 21.6 23 Oeste 33 Oeste 0 945.9 -0.8 68
2019-10-10 16:00:00 21.9 17 Noroeste 35 Oeste 0 946 -1.6 59
2019-10-10 15:00:00 22.4 18 Oeste 32 Noroeste 0 946.2 -1.6 60
2019-10-10 14:00:00 22 15 Noroeste 33 Noroeste 0 946.7 -1.2 60
2019-10-10 13:00:00 22 11 Noroeste 35 Noroeste 0 947.6 0.2 59
2019-10-10 12:00:00 20.9 24 Noroeste 37 Oeste 0 947.8 0.9 65
2019-10-10 11:00:00 20.8 20 Noroeste 33 Noroeste 0 947.9 1.4 65
2019-10-10 10:00:00 19.9 18 Noroeste 26 Noroeste 0 947.4 1 73
2019-10-10 09:00:00 17.9 17 Noroeste 30 Oeste 0 946.9 0.6 91
2019-10-10 08:00:00 16 21 Oeste 28 Oeste 0 946.5 0.3 90
2019-10-10 07:00:00 16.3 15 Noroeste 24 Noroeste 0 946.4 -0.2 84
2019-10-10 06:00:00 16.9 17 Noroeste 24 Noroeste 0 946.3 -0.8 87
2019-10-10 05:00:00 17.5 17 Noroeste 24 Noroeste 0 946.2 -1.5 92
2019-10-10 04:00:00 17.3 15 Noroeste 26 Oeste 0 946.6 -1.6 93
2019-10-10 03:00:00 16.9 17 Noroeste 26 Noroeste 0 947.1 -1 92
2019-10-10 02:00:00 16.8 13 Oeste 26 Noroeste 0 947.7 -0.3 89
2019-10-10 01:00:00 17.6 15 Noroeste 30 Noroeste 0 948.2 0.5 84
2019-10-10 00:00:00 17.8 18 Noroeste 37 Norte 0 948.1 0.4 91
2019-10-09 23:00:00 17.4 22 Noroeste 35 Noroeste 0 948 0.8 84
2019-10-09 22:00:00 17.5 23 Noroeste 33 Oeste 0 947.7 1 86
2019-10-09 21:00:00 17.7 19 Noroeste 32 Noroeste 0 947.7 0.9 86
2019-10-09 20:00:00 17.8 26 Oeste 41 Oeste 0 947.2 0.5 88
2019-10-09 19:00:00 18.6 27 Noroeste 35 Noroeste 0 946.7 -0.2 81
2019-10-09 18:00:00 20.2 21 Noroeste 37 Noroeste 0 946.8 -0.2 73
2019-10-09 17:00:00 21 26 Oeste 39 Oeste 0 946.7 -0.6 67
2019-10-09 16:00:00 20.5 26 Noroeste 39 Noroeste 0 946.9 -0.8 73
2019-10-09 15:00:00 21.4 25 Noroeste 39 Noroeste 0 947 -0.8 67
2019-10-09 14:00:00 21.2 27 Oeste 41 Noroeste 0 947.3 -0.4 68
2019-10-09 13:00:00 20.9 24 Noroeste 41 Oeste 0 947.7 0.2 69
2019-10-09 12:00:00 21 26 Oeste 35 Oeste 0 947.8 0.6 69
2019-10-09 11:00:00 19.5 26 Oeste 35 Oeste 0 947.7 0.8 75
2019-10-09 10:00:00 18.3 26 Oeste 39 Oeste 0 947.5 0.7 80
2019-10-09 09:00:00 16.9 27 Oeste 41 Oeste 0 947.2 0.5 89
2019-10-09 08:00:00 16 25 Oeste 41 Oeste 0 946.9 0 91
2019-10-09 07:00:00 16.1 29 Oeste 39 Oeste 0 946.8 -0.3 90
2019-10-09 06:00:00 16.1 27 Oeste 39 Oeste 0 946.7 -1 91
2019-10-09 05:00:00 16.3 27 Oeste 39 Oeste 0 946.9 -1 91
2019-10-09 04:00:00 16.6 28 Oeste 39 Oeste 0 947.1 -0.9 92
2019-10-09 03:00:00 16.5 28 Oeste 39 Oeste 0 947.7 -0.6 93
2019-10-09 02:00:00 16.2 26 Oeste -- -- -- 947.9 -0.3 92
2019-10-09 01:00:00 16.3 28 Oeste 35 Oeste 0 948 0 93
2019-10-09 00:00:00 16.3 24 Oeste 32 Oeste 0 948.3 0.8 93
2019-10-08 23:00:00 16.5 21 Oeste 42 Oeste 0 948.2 1.2 93
2019-10-08 22:00:00 16.7 27 Oeste 37 Oeste 0 948 1.2 93
2019-10-08 21:00:00 17.1 27 Oeste 35 Oeste 0 947.5 0.6 92
2019-10-08 20:00:00 17.1 25 Oeste 35 Oeste 0 947 0.5 91
2019-10-08 19:00:00 18.1 25 Oeste 32 Oeste 0 946.8 -0.2 87
2019-10-08 18:00:00 18.6 23 Oeste 45 Oeste 0 946.9 0.1 86
2019-10-08 17:00:00 19.5 35 Oeste 46 Oeste 0 946.5 -0.7 82
2019-10-08 16:00:00 21.1 26 Oeste 35 Oeste 0 947 -0.7 76
2019-10-08 15:00:00 22 21 Oeste 33 Oeste 0 946.8 -1.2 72
2019-10-08 14:00:00 21.4 24 Oeste 39 Oeste 0 947.2 -0.9 74
2019-10-08 13:00:00 21.1 31 Oeste 42 Oeste 0 947.7 -0.2 75
2019-10-08 12:00:00 20.3 30 Oeste 42 Oeste 0 948 0.4 79
2019-10-08 11:00:00 19.6 31 Oeste 42 Oeste 0 948.1 1 81
2019-10-08 10:00:00 18.7 34 Oeste 45 Oeste 0 947.9 1.1 84
2019-10-08 09:00:00 17.5 32 Oeste 41 Oeste 0 947.6 1 92
2019-10-08 08:00:00 16.7 32 Oeste 41 Oeste 0 947.1 0.6 97
2019-10-08 07:00:00 16.7 32 Oeste 45 Oeste 0 946.8 0.2 98
2019-10-08 06:00:00 16.8 31 Oeste 41 Oeste 0 946.6 -0.5 97
2019-10-08 05:00:00 16.7 21 Oeste 33 Oeste 0 946.5 -0.7 97
2019-10-08 04:00:00 16.5 18 Oeste 30 Oeste 0 946.6 -0.9 97
2019-10-08 03:00:00 16.6 18 Oeste 32 Oeste 0 947.1 -0.6 97
2019-10-08 02:00:00 16.5 18 Oeste 26 Oeste 0 947.2 -0.7 96
2019-10-08 01:00:00 16.6 18 Oeste 32 Oeste 0 947.5 -0.1 95
2019-10-08 00:00:00 16.8 19 Oeste 41 Oeste 0 947.7 0.4 94
2019-10-07 23:00:00 17.1 32 Oeste 39 Oeste 0 947.9 0.9 93
2019-10-07 22:00:00 17.6 27 Oeste 42 Noroeste 0 947.6 1 90
2019-10-07 21:00:00 17.7 32 Oeste 45 Oeste 0 947.3 0.5 89
2019-10-07 20:00:00 17.9 32 Oeste 42 Oeste 0 947 0.2 91
2019-10-07 19:00:00 18.7 26 Oeste 37 Oeste 0 946.6 -0.2 88
2019-10-07 18:00:00 19.1 28 Oeste 37 Oeste 0 946.8 -0.4 87
2019-10-07 17:00:00 20.2 24 Oeste 33 Oeste 0 946.8 -0.8 84
2019-10-07 16:00:00 23.3 16 Oeste 24 Oeste 0 946.8 -1.5 69
2019-10-07 15:00:00 23.3 7 Nordeste 22 Este 0 947.2 -1.3 68
2019-10-07 14:00:00 22 14 Este 24 Este 0 947.6 -0.8 72
2019-10-07 13:00:00 21.4 13 Este 22 Este 0 948.3 0 73
2019-10-07 12:00:00 21 15 Este 24 Este 0 948.5 0.8 74
2019-10-07 11:00:00 21.4 5 Este 13 Noroeste 0 948.4 1.2 68
2019-10-07 10:00:00 18.8 9 Oeste 21 Oeste 0 948.3 1.3 84
2019-10-07 09:00:00 16.9 18 Oeste 28 Oeste 0 947.7 0.8 94
2019-10-07 08:00:00 16 24 Oeste 32 Oeste 0 947.2 0.6 95
2019-10-07 07:00:00 16.1 23 Oeste 30 Oeste 0 947 0.2 95
2019-10-07 06:00:00 16.1 22 Oeste 32 Oeste 0 946.9 -0.3 94
2019-10-07 05:00:00 16.4 27 Oeste 35 Noroeste 0 946.6 -1.2 94
2019-10-07 04:00:00 16.3 26 Oeste 33 Oeste 0 946.8 -1.6 95
2019-10-07 03:00:00 16.4 26 Oeste 33 Oeste 0 947.2 -1.8 94
2019-10-07 02:00:00 16.7 24 Oeste 33 Oeste 0 947.8 -1.2 95
2019-10-07 01:00:00 17 27 Oeste 32 Oeste 0 948.4 -0.5 92
2019-10-07 00:00:00 17 22 Oeste 33 Noroeste 0 949 0.4 89
2019-10-06 23:00:00 17.8 21 Noroeste 35 Oeste 0 949 0.7 89
2019-10-06 22:00:00 17.5 19 Noroeste 30 Noroeste 0 948.9 0.7 88
2019-10-06 21:00:00 17.7 19 Noroeste 41 Noroeste 0 948.6 0.6 85
2019-10-06 20:00:00 18.1 23 Noroeste 35 Noroeste 0 948.3 0.3 86
2019-10-06 19:00:00 18.5 18 Noroeste 33 Noroeste 0 948.2 0 84
2019-10-06 18:00:00 19 25 Noroeste 39 Noroeste 0 948 -0.3 78
2019-10-06 17:00:00 19.9 23 Noroeste 37 Noroeste 0 948 -0.8 80
2019-10-06 16:00:00 22.3 21 Noroeste 32 Noroeste 0 948.2 -0.9 66
2019-10-06 15:00:00 23.1 15 Noroeste 30 Noroeste 0 948.3 -0.9 64
2019-10-06 14:00:00 23 10 Norte 28 Noroeste 0 948.8 -0.4 65
2019-10-06 13:00:00 22.1 17 Noroeste 28 Noroeste 0 949.1 -0.1 68
2019-10-06 12:00:00 20.9 18 Noroeste 33 Noroeste 0 949.2 0.6 72
2019-10-06 11:00:00 19.9 18 Noroeste 30 Noroeste 0 949.2 0.8 78
2019-10-06 10:00:00 18.9 16 Noroeste 35 Noroeste 0 949.2 1.4 82
2019-10-06 09:00:00 17.4 24 Noroeste 39 Noroeste 0 948.6 0.9 91
2019-10-06 08:00:00 17 26 Noroeste 41 Noroeste 0 948.4 0.6 89
2019-10-06 07:00:00 17.4 21 Noroeste 37 Oeste 0 947.8 -0.3 92
2019-10-06 06:00:00 17.3 23 Noroeste 33 Noroeste 0 947.7 -0.8 91
2019-10-06 05:00:00 17.4 18 Noroeste 35 Norte 0 947.8 -1 94
2019-10-06 04:00:00 17.4 21 Noroeste 42 Oeste 0 948.1 -0.9 94
2019-10-06 03:00:00 17.4 27 Noroeste 39 Oeste 0 948.5 -0.8 96
2019-10-06 02:00:00 17.5 21 Oeste 39 Oeste 0 948.8 -0.5 94
2019-10-06 01:00:00 17.4 24 Oeste 37 Oeste 0 949 0.2 93
2019-10-06 00:00:00 17.6 22 Oeste 37 Oeste 0 949.3 1 95
2019-10-05 23:00:00 17.7 20 Oeste 41 Oeste 0 949.3 1.1 96
2019-10-05 22:00:00 17.8 25 Oeste 46 Oeste 0 948.8 0.9 93
2019-10-05 21:00:00 18 28 Oeste 42 Oeste 0 948.3 0.7 92
2019-10-05 20:00:00 18.3 28 Oeste 46 Oeste 0 948.2 0.7 90
2019-10-05 19:00:00 18.8 25 Oeste 33 Oeste 0 947.9 0.3 93
2019-10-05 18:00:00 19.4 24 Oeste 41 Oeste 0 947.6 -0.4 96
2019-10-05 17:00:00 20.9 28 Oeste 45 Oeste 0 947.5 -0.8 84
2019-10-05 16:00:00 21.2 28 Noroeste 42 Oeste 0 947.6 -1.2 81
2019-10-05 15:00:00 20.8 27 Oeste 41 Oeste 0 948 -1 87
2019-10-05 14:00:00 20.2 28 Oeste 45 Noroeste 0 948.3 -0.5 91
2019-10-05 13:00:00 21.6 30 Noroeste 42 Noroeste 0 948.8 0.5 83
2019-10-05 12:00:00 21 22 Oeste 32 Oeste 0 949 0.9 85
2019-10-05 11:00:00 21.4 21 Norte 37 Noroeste 0 948.8 1.2 78
2019-10-05 10:00:00 20.3 18 Noroeste 26 Noroeste 0 948.3 1 86
2019-10-05 09:00:00 18.9 8 Noroeste 24 Noroeste 0 948.1 1.1 90
2019-10-05 08:00:00 18.6 14 Noroeste 28 Noroeste 0 947.6 0.7 91
2019-10-05 07:00:00 18.4 17 Noroeste 33 Noroeste 0 947.3 0.4 92
2019-10-05 06:00:00 18.2 23 Noroeste 35 Noroeste 0 947 -0.1 92
2019-10-05 05:00:00 18 17 Oeste 30 Oeste 0 946.9 -0.4 93
2019-10-05 04:00:00 17.5 27 Oeste 37 Oeste 0 946.9 -0.8 95
2019-10-05 03:00:00 17.2 28 Oeste 37 Oeste 0 947.1 -1.1 95
2019-10-05 02:00:00 17.5 31 Oeste 46 Oeste 0 947.3 -1.2 97
2019-10-05 01:00:00 17.3 37 Oeste 46 Oeste 0 947.7 -1 94
2019-10-05 00:00:00 17.3 30 Oeste 42 Oeste 0 948.2 -0.3 94
2019-10-04 23:00:00 17.7 32 Oeste 41 Oeste 0 948.5 0.4 94
2019-10-04 22:00:00 17.8 24 Oeste 37 Oeste 0 948.7 1 93
2019-10-04 21:00:00 18.1 26 Oeste 42 Oeste 0 948.5 1.1 93
2019-10-04 20:00:00 18.1 34 Oeste 45 Oeste 0 948.1 0.8 92
2019-10-04 19:00:00 19.1 35 Oeste 48 Noroeste 0 947.7 0 87
2019-10-04 18:00:00 20.4 40 Oeste 50 Oeste 0 947.4 -0.6 81
2019-10-04 17:00:00 21.2 38 Oeste 45 Oeste 0 947.3 -1.4 78
2019-10-04 16:00:00 22 31 Oeste 42 Oeste 0 947.7 -2 76
2019-10-04 15:00:00 23.6 31 Oeste 41 Oeste 0 948 -2 67
2019-10-04 14:00:00 23.5 30 Oeste 39 Oeste 0 948.7 -1.5 66
2019-10-04 13:00:00 22.9 27 Oeste 37 Oeste 0 949.7 -0.3 69
2019-10-04 12:00:00 21.3 28 Oeste 39 Oeste 0 950 0.3 76
2019-10-04 11:00:00 20.1 27 Oeste 39 Oeste 0 950.2 0.7 85
2019-10-04 10:00:00 18.5 25 Oeste 35 Oeste 0 950 0.8 92
2019-10-04 09:00:00 17.8 23 Oeste 39 Oeste 0 949.7 0.6 95
2019-10-04 08:00:00 17.4 24 Oeste 39 Oeste 0 949.5 0.3 97
2019-10-04 07:00:00 17.6 27 Oeste 39 Oeste 0 949.2 -0.1 97
2019-10-04 06:00:00 17.6 28 Oeste 39 Oeste 0 949.1 -0.4 96
2019-10-04 05:00:00 17.6 29 Oeste 42 Oeste 0 949.2 -0.5 95
2019-10-04 04:00:00 17.4 29 Oeste 41 Oeste 0 949.3 -1 97
2019-10-04 03:00:00 20.7 19 Oeste 26 Oeste 0 949.5 -1 59
2019-10-04 02:00:00 25.4 9 Oeste 22 Nordeste 0 949.7 -1.1 25
2019-10-04 01:00:00 25.7 7 Norte 17 Oeste 0 950.3 0 26
2019-10-04 00:00:00 23.7 15 Oeste 22 Oeste 0 950.5 0.6 37
2019-10-03 23:00:00 22 17 Oeste 26 Oeste 0 950.8 1.1 48
2019-10-03 22:00:00 24.7 18 Oeste 24 Oeste 0 950.3 0.4 30
2019-10-03 21:00:00 24.9 13 Sudoeste 21 Oeste 0 949.9 -0.3 33
2019-10-03 20:00:00 25 14 Oeste 21 Sudoeste 0 949.7 -0.5 41
2019-10-03 19:00:00 26.6 14 Oeste 21 Oeste 0 949.9 -0.3 42
2019-10-03 18:00:00 28.6 12 Noroeste 28 Noroeste 0 950.2 -0.2 38
2019-10-03 17:00:00 29.7 17 Noroeste 26 Noroeste 0 950.2 -0.9 35
2019-10-03 16:00:00 29.6 9 Este 21 Este 0 950.2 -1.5 48
2019-10-03 15:00:00 29.7 11 Este 18 Este 0 950.4 -1.6 47
2019-10-03 14:00:00 29.1 9 Este 21 Este 0 951.1 -1 48
2019-10-03 13:00:00 29.9 11 Este 22 Este 0 951.7 -0.2 38
2019-10-03 12:00:00 29 12 Este 17 Este 0 952 0.4 33
2019-10-03 11:00:00 28.2 10 Este 15 Este 0 952.1 1.1 34
2019-10-03 10:00:00 27.1 8 Este 13 Este 0 951.9 1.2 29
2019-10-03 09:00:00 25.5 5 Este 13 Este 0 951.6 1.3 32
2019-10-03 08:00:00 22.2 6 Sur 15 Sur 0 951 0.6 36
2019-10-03 07:00:00 23.2 10 Sur 17 Sur 0 950.7 0.2 35
2019-10-03 06:00:00 21.9 12 Sur 17 Sur 0 950.3 -0.4 43
2019-10-03 05:00:00 23.7 11 Sudeste 21 Sur 0 950.4 -0.3 36
2019-10-03 04:00:00 23 12 Sur 21 Sudeste 0 950.5 -0.1 35
2019-10-03 03:00:00 24.3 13 Sudeste 24 Sur 0 950.7 -0.1 32
2019-10-03 02:00:00 23.9 13 Sur 17 Sur 0 950.7 -0.1 23
2019-10-03 01:00:00 25.3 7 Sudeste 13 Sur 0 950.6 0.1 14
2019-10-03 00:00:00 27 9 Sudeste 13 Sur 0 950.8 0.8 13
2019-10-02 23:00:00 27.5 3 Sur 13 Sur 0 950.8 1.2 12
2019-10-02 22:00:00 27.4 11 Sur 15 Sudeste 0 950.5 1.1 12
2019-10-02 21:00:00 28.9 9 Sudeste 17 Sudeste 0 950 0.6 12
2019-10-02 20:00:00 29.2 13 Sudeste 18 Sudeste 0 949.6 0.2 12
2019-10-02 19:00:00 30.3 12 Sudeste 18 Sudeste 0 949.4 -0.2 12
2019-10-02 18:00:00 30.9 13 Este 22 Este 0 949.4 -0.4 10
2019-10-02 17:00:00 31.6 15 Sudeste 28 Sudeste 0 949.4 -0.7 10
2019-10-02 16:00:00 31.7 19 Sudeste 30 Este 0 949.6 -0.8 10
2019-10-02 15:00:00 32 20 Este 33 Este 0 949.8 -0.6 11
2019-10-02 14:00:00 31.9 20 Este 30 Este 0 950.1 -0.3 9
2019-10-02 13:00:00 31.2 20 Este 30 Sudeste 0 950.4 0.5 10
2019-10-02 12:00:00 31.2 19 Sudeste 28 Sudeste 0 950.4 1.2 12
2019-10-02 11:00:00 31 14 Sudeste 24 Este 0 950.4 1.6 14
2019-10-02 10:00:00 31.1 15 Sudeste 26 Sudeste 0 949.9 1.2 17
2019-10-02 09:00:00 29.1 12 Sudeste 22 Sur 0 949.2 0.8 18
2019-10-02 08:00:00 26.9 10 Sudeste 17 Sur 0 948.8 0.5 19
2019-10-02 07:00:00 26.2 8 Sur 17 Sudeste 0 948.7 0 20
2019-10-02 06:00:00 26.7 5 Sudeste 15 Sur 0 948.4 -0.6 19
2019-10-02 05:00:00 26.7 10 Sur 21 Sur 0 948.3 -1.1 19
2019-10-02 04:00:00 26.9 10 Sudeste 17 Sur 0 948.7 -1.2 19
2019-10-02 03:00:00 26.7 11 Sur 21 Sudeste 0 949 -0.9 20
2019-10-02 02:00:00 24.1 3 Sur 15 Sur 0 949.4 -0.5 24
2019-10-02 01:00:00 25.6 12 Sur 17 Sur 0 949.9 0.4 22
2019-10-02 00:00:00 26.3 10 Sudeste 17 Sudeste 0 949.9 0.9 21
2019-10-01 23:00:00 26.4 10 Sudeste 17 Sudeste 0 949.9 1.3 21
2019-10-01 22:00:00 26.8 13 Sudeste 21 Sudeste 0 949.5 1 20
2019-10-01 21:00:00 27.3 13 Sudeste 24 Sudeste 0 949 0.7 20
2019-10-01 20:00:00 28 14 Sudeste 24 Sudeste 0 948.6 0.4 20
2019-10-01 19:00:00 29.2 14 Sudeste 26 Sur 0 948.5 0.2 22
2019-10-01 18:00:00 29.4 15 Sudeste 26 Sudeste 0 948.3 -0.4 24
2019-10-01 17:00:00 29.3 15 Este 26 Sudeste 0 948.2 -0.9 29
2019-10-01 16:00:00 30.3 17 Sudeste 28 Sudeste 0 948.3 -1.2 29
2019-10-01 15:00:00 31.9 22 Sudeste 30 Sur 0 948.7 -1 27
2019-10-01 14:00:00 32.5 16 Sudeste 24 Sudeste 0 949.1 -0.4 24
2019-10-01 13:00:00 32.9 13 Sudeste 28 Sudeste 0 949.5 0.5 18
2019-10-01 12:00:00 31.8 16 Sudeste 28 Sudeste 0 949.7 1.3 18
2019-10-01 11:00:00 31 13 Sudeste 22 Sudeste 0 949.5 1.7 19
2019-10-01 10:00:00 29.2 11 Sudeste 24 Sudeste 0 949 1.7 20
2019-10-01 09:00:00 27.8 14 Sudeste 24 Sudeste 0 948.4 1.6 21
2019-10-01 08:00:00 25.2 8 Sudeste 24 Sur 0 947.8 1.1 23
2019-10-01 07:00:00 23.9 13 Sur 24 Sur 0 947.3 0.6 25
2019-10-01 06:00:00 24.1 10 Sudeste 17 Sur 0 946.8 -0.4 25
2019-10-01 05:00:00 25.2 10 Sur 15 Sudeste 0 946.7 -0.9 24
2019-10-01 04:00:00 24.1 3 Sur 21 Sudeste 0 946.7 -1.1 24
2019-10-01 03:00:00 24.7 9 Sudeste 17 Sur 0 947.2 -0.8 23
2019-10-01 02:00:00 24.5 7 Sudeste 15 Sur 0 947.6 -0.3 22
2019-10-01 01:00:00 24.9 12 Sur 15 Sur 0 947.8 0.3 22
2019-10-01 00:00:00 25.1 8 Sur 11 Sudoeste 0 948 1.2 24
2019-09-30 23:00:00 24 2 Sur 15 Sudoeste 0 947.9 1.5 27
2019-09-30 22:00:00 23.9 12 Oeste 24 Oeste 0 947.5 1.4 27
2019-09-30 21:00:00 21.6 17 Oeste 33 Oeste 0 946.8 0.5 42
2019-09-30 20:00:00 18.4 29 Oeste 37 Oeste 0 946.4 -0.1 95
2019-09-30 19:00:00 19.6 24 Oeste 35 Oeste 0 946.1 -0.2 91
2019-09-30 18:00:00 20.5 27 Oeste 37 Oeste 0 946.3 -0.2 88
2019-09-30 17:00:00 20.3 30 Oeste 37 Oeste 0 946.5 0 91
2019-09-30 16:00:00 22.5 26 Oeste 37 Oeste 0 946.3 -0.7 79
2019-09-30 15:00:00 23.5 27 Oeste 33 Oeste 0 946.5 -0.7 75
2019-09-30 14:00:00 32.8 15 Este 28 Este 0 946.5 -0.6 17
2019-09-30 13:00:00 31.8 13 Sudeste 26 Este 0 947 0.1 18
2019-09-30 12:00:00 31.4 12 Sudeste 22 Este 0 947.2 0.8 18
2019-09-30 11:00:00 31.6 11 Este 18 Este 0 947.1 1.1 18
2019-09-30 10:00:00 30.1 9 Sudeste 17 Sur 0 946.9 1.2 20
2019-09-30 09:00:00 24.3 7 Sur 13 Sur 0 946.4 0.8 30
2019-09-30 08:00:00 19.6 5 Sudoeste 21 Oeste 0 946 0.2 54
2019-09-30 07:00:00 23.1 10 Sudoeste 21 Oeste 0 945.7 -0.4 36
2019-09-30 06:00:00 20.5 8 Sur 24 Oeste 0 945.6 -0.6 52
2019-09-30 05:00:00 16.6 21 Oeste 30 Oeste 0 945.8 -0.8 94
2019-09-30 04:00:00 16.8 20 Oeste 32 Oeste 0 946.1 -0.8 97
2019-09-30 03:00:00 18.7 22 Oeste 30 Oeste 0 946.2 -0.9 76
2019-09-30 02:00:00 23.1 16 Oeste 30 Oeste 0 946.6 -0.7 40
2019-09-30 01:00:00 17.9 18 Oeste 30 Oeste 0 946.9 -0.2 91
2019-09-30 00:00:00 23.6 15 Oeste 28 Oeste 0 947.1 0.5 42
2019-09-29 23:00:00 18.9 19 Oeste 32 Oeste 0 947.3 0.8 87
2019-09-29 22:00:00 19.4 21 Oeste 30 Oeste 0 947.1 0.7 89
2019-09-29 21:00:00 18.8 19 Oeste 30 Oeste 0 946.6 0 96
2019-09-29 20:00:00 18.7 25 Oeste 33 Oeste 0 946.5 -0.1 95
2019-09-29 19:00:00 20.1 25 Oeste 32 Oeste 0 946.4 -0.5 89
2019-09-29 18:00:00 23.1 21 Oeste 26 Oeste 0 946.6 -0.7 74
2019-09-29 17:00:00 24.7 18 Oeste 26 Oeste 0 946.6 -1.2 66
2019-09-29 16:00:00 26.3 12 Este 24 Este 0 946.9 -1.6 55
2019-09-29 15:00:00 26.2 12 Este 22 Este 0 947.3 -1.3 59
2019-09-29 14:00:00 26.4 7 Este 18 Este 0 947.8 -0.6 53
2019-09-29 13:00:00 24.2 8 Este 24 Sudeste 0 948.5 0.6 66
2019-09-29 12:00:00 21.9 15 Sudeste 22 Este 0 948.6 0.9 75
2019-09-29 11:00:00 21.6 6 Sur 24 Oeste 0 948.4 0.9 75
2019-09-29 10:00:00 19.2 18 Oeste 28 Oeste 0 947.9 1 88
2019-09-29 09:00:00 18 16 Oeste 32 Oeste 0 947.7 1 94
2019-09-29 08:00:00 17.4 25 Oeste 35 Oeste 0 947.5 0.6 95
2019-09-29 07:00:00 17.5 27 Oeste 37 Oeste 0 946.9 -0.4 95
2019-09-29 06:00:00 17.3 28 Oeste 41 Oeste 0 946.7 -1.1 95
2019-09-29 05:00:00 17.4 27 Oeste 37 Oeste 0 946.9 -1.4 97
2019-09-29 04:00:00 17.6 26 Oeste 35 Oeste 0 947.3 -1.3 95
2019-09-29 03:00:00 17.6 26 Oeste 35 Oeste 0 947.8 -1.1 96
2019-09-29 02:00:00 17.4 24 Oeste 32 Oeste 0 948.3 -0.7 95
2019-09-29 01:00:00 17.3 23 Oeste 32 Oeste 0 948.6 -0.1 95
2019-09-29 00:00:00 17.6 23 Oeste 33 Oeste 0 948.9 0.5 95
2019-09-28 23:00:00 17.9 26 Oeste 35 Oeste 0 949 0.8 95
2019-09-28 22:00:00 17.3 25 Oeste 33 Oeste 0 948.7 0.5 91
2019-09-28 21:00:00 17.6 26 Oeste 32 Oeste 0 948.4 -0.1 92
2019-09-28 20:00:00 18.3 16 Oeste 26 Oeste 0 948.2 -0.3 87
2019-09-28 19:00:00 19.7 17 Oeste 32 Oeste 0 948.2 -0.2 79
2019-09-28 18:00:00 21.1 23 Oeste 33 Oeste 0 948.5 -0.4 72
2019-09-28 17:00:00 22.7 17 Oeste 30 Oeste 0 948.5 -0.9 66
2019-09-28 16:00:00 23.1 20 Oeste 33 Oeste 0 948.4 -1.4 67
2019-09-28 15:00:00 23.4 5 Sudeste 22 Este 0 948.9 -1 67
2019-09-28 14:00:00 22.3 10 Este 24 Este 0 949.4 -0.5 70
2019-09-28 13:00:00 22.1 15 Este 26 Este 0 949.8 0.5 70
2019-09-28 12:00:00 22.9 11 Este 21 Este 0 949.9 1.2 65
2019-09-28 11:00:00 21 13 Oeste 28 Oeste 0 949.9 1.5 72
2019-09-28 10:00:00 19.2 21 Oeste 35 Oeste 0 949.3 0.9 84
2019-09-28 09:00:00 17.4 27 Oeste 35 Oeste 0 948.7 0.5 92
2019-09-28 08:00:00 16.3 25 Oeste 33 Oeste 0 948.4 0.1 94
2019-09-28 07:00:00 16.6 21 Oeste 32 Oeste 0 948.4 -0.1 95
2019-09-28 06:00:00 16.6 24 Oeste 30 Oeste 0 948.2 -0.8 94
2019-09-28 05:00:00 17.3 19 Noroeste 32 Noroeste 0 948.3 -1.1 93
2019-09-28 04:00:00 17 24 Oeste 39 Noroeste 0 948.5 -1.4 94
2019-09-28 03:00:00 17.1 27 Oeste 35 Oeste 0 949 -1.4 92
2019-09-28 02:00:00 17.2 23 Oeste 33 Oeste 0 949.4 -1 95
2019-09-28 01:00:00 17 22 Oeste 30 Noroeste 0 949.9 0.1 92
2019-09-28 00:00:00 16.5 17 Oeste 22 Oeste 0 950.4 1 93
2019-09-27 23:00:00 16.8 15 Oeste 26 Oeste 0 950.4 1.4 92
2019-09-27 22:00:00 17.1 18 Oeste 26 Oeste 0 949.8 0.9 93
2019-09-27 21:00:00 17.5 22 Oeste 33 Oeste 0 949.4 0.5 91
2019-09-27 20:00:00 18.7 23 Noroeste 33 Oeste 0 949 0.1 85
2019-09-27 19:00:00 20.4 24 Oeste 37 Oeste 0 948.9 -0.3 75
2019-09-27 18:00:00 21.5 28 Noroeste 39 Noroeste 0 948.9 -0.6 68
2019-09-27 17:00:00 21.6 24 Oeste 35 Noroeste 0 948.9 -1 73
2019-09-27 16:00:00 21.8 24 Noroeste 41 Noroeste 0 949.2 -1 74
2019-09-27 15:00:00 22.2 26 Noroeste 42 Oeste 0 949.5 -1.2 69
2019-09-27 14:00:00 22.7 23 Noroeste 39 Noroeste 0 949.9 -0.7 65
2019-09-27 13:00:00 22.4 27 Noroeste 39 Noroeste 0 950.2 0.1 68
2019-09-27 12:00:00 21.8 23 Oeste 39 Noroeste 0 950.7 0.8 70
2019-09-27 11:00:00 21 22 Noroeste 35 Noroeste 0 950.6 0.9 69
2019-09-27 10:00:00 20 23 Noroeste 37 Noroeste 0 950.1 0.9 79
2019-09-27 09:00:00 18.9 27 Noroeste 37 Noroeste 0 949.9 0.9 82
2019-09-27 08:00:00 17.5 26 Noroeste 35 Oeste 0 949.7 0.4 91
2019-09-27 07:00:00 17.6 25 Noroeste 39 Oeste 0 949.2 -0.3 86
2019-09-27 06:00:00 17.5 26 Oeste 39 Oeste 0 949 -1 94
2019-09-27 05:00:00 17.4 28 Oeste 42 Oeste 0 949.3 -1.1 87
2019-09-27 04:00:00 17.4 27 Noroeste 41 Noroeste 0 949.5 -1.1 87
2019-09-27 03:00:00 17.4 27 Noroeste 37 Oeste 0 950 -0.6 89
2019-09-27 02:00:00 17.6 25 Noroeste 35 Noroeste 0 950.4 -0.3 85
2019-09-27 01:00:00 17.3 24 Oeste 33 Oeste 0 950.6 0.4 86
2019-09-27 00:00:00 17.8 22 Noroeste 33 Noroeste 0 950.6 1 84
2019-09-26 23:00:00 18 24 Noroeste 35 Noroeste 0 950.7 1.6 84
2019-09-26 22:00:00 18.8 22 Noroeste 32 Noroeste 0 950.2 1.4 90
2019-09-26 21:00:00 18.1 21 Noroeste 32 Noroeste 0 949.6 0.9 85
2019-09-26 20:00:00 18.5 22 Noroeste 35 Noroeste 0 949.1 0.5 81
2019-09-26 19:00:00 19.8 26 Noroeste 37 Oeste 0 948.8 0 80
2019-09-26 18:00:00 21.5 23 Oeste 32 Oeste 0 948.7 -0.2 71
2019-09-26 17:00:00 23 19 Oeste 30 Oeste 0 948.6 -0.9 64
2019-09-26 16:00:00 22.8 23 Oeste 33 Oeste 0 948.8 -1.2 65
2019-09-26 15:00:00 22.9 18 Oeste 32 Oeste 0 948.9 -1.4 67
2019-09-26 14:00:00 22.6 18 Oeste 30 Oeste 0 949.5 -0.9 71
2019-09-26 13:00:00 22.4 14 Oeste 28 Noroeste 0 950 0 71
2019-09-26 12:00:00 21.6 17 Noroeste 32 Noroeste 0 950.3 1 74
2019-09-26 11:00:00 21.7 19 Noroeste 35 Noroeste 0 950.4 1.6 71
2019-09-26 10:00:00 20.2 19 Noroeste 32 Noroeste 0 950 1.8 77
2019-09-26 09:00:00 18.7 21 Noroeste 30 Noroeste 0 949.3 1.3 88
2019-09-26 08:00:00 17.6 20 Noroeste 32 Oeste 0 948.8 0.9 92
2019-09-26 07:00:00 17.6 20 Noroeste 30 Oeste 0 948.2 0.3 94
2019-09-26 06:00:00 18.4 12 Noroeste 18 Noroeste 0 948 -0.5 97
2019-09-26 05:00:00 18.2 14 Oeste 26 Noroeste 0 947.9 -0.8 98
2019-09-26 04:00:00 17.5 19 Oeste 26 Oeste 0 947.9 -1.2 94
2019-09-26 03:00:00 17.1 17 Oeste 24 Oeste 0 948.5 -0.8 95
2019-09-26 02:00:00 17.1 13 Oeste 17 Oeste 0 948.7 -0.5 93
2019-09-26 01:00:00 16.9 13 Oeste 21 Oeste 0 949.1 0.2 94
2019-09-26 00:00:00 17.1 15 Oeste 28 Oeste 0 949.3 0.9 94
2019-09-25 23:00:00 17.7 22 Oeste 30 Oeste 0 949.2 1.1 95
2019-09-25 22:00:00 17.9 22 Oeste 30 Noroeste 0 948.9 1 90
2019-09-25 21:00:00 18 21 Oeste 35 Noroeste 0 948.4 0.6 88
2019-09-25 20:00:00 18.7 23 Oeste 35 Oeste 0 948.1 0.1 83
2019-09-25 19:00:00 20.4 24 Noroeste 35 Oeste 0 947.9 -0.3 75
2019-09-25 18:00:00 21.5 25 Oeste 37 Oeste 0 947.8 -0.8 74
2019-09-25 17:00:00 22.7 22 Noroeste 37 Oeste 0 948 -1.1 64
2019-09-25 16:00:00 22.5 27 Oeste 35 Oeste 0 948.2 -1.5 70
2019-09-25 15:00:00 23.3 23 Oeste 33 Oeste 0 948.6 -1.6 62
2019-09-25 14:00:00 22.8 27 Oeste 50 Noroeste 0 949.1 -1.1 64
2019-09-25 13:00:00 22.1 28 Oeste 39 Oeste 0 949.7 -0.3 68
2019-09-25 12:00:00 21.4 25 Noroeste 39 Noroeste 0 950.2 0.5 71
2019-09-25 11:00:00 20.9 27 Oeste 37 Oeste 0 950.2 0.9 73
2019-09-25 10:00:00 19.5 26 Noroeste 45 Oeste 0 950 1 81
2019-09-25 09:00:00 18.3 31 Oeste 46 Oeste 0 949.7 0.8 82
2019-09-25 08:00:00 17 28 Oeste 41 Oeste 0 949.3 0.3 91
2019-09-25 07:00:00 17.1 30 Oeste 46 Oeste 0 949 0 94
2019-09-25 06:00:00 16.9 30 Oeste 54 Oeste 0 948.9 -0.6 93
2019-09-25 05:00:00 17 31 Oeste 42 Noroeste 0 949 -1 93
2019-09-25 04:00:00 17.3 30 Oeste 42 Oeste 0 949 -1.4 86
2019-09-25 03:00:00 17.3 26 Oeste 41 Noroeste 0 949.5 -1.1 89
2019-09-25 02:00:00 17.2 25 Oeste 41 Noroeste 0 950 -0.7 90
2019-09-25 01:00:00 17.2 23 Noroeste 37 Noroeste 0 950.4 -0.1 87
2019-09-25 00:00:00 17.2 26 Noroeste 35 Noroeste 0 950.6 0.6 88
2019-09-24 23:00:00 17.3 26 Oeste 37 Oeste 0 950.7 1 88
2019-09-24 22:00:00 17.2 25 Oeste 33 Oeste 0 950.5 0.9 86
2019-09-24 21:00:00 17.9 25 Oeste 33 Noroeste 0 950 0.5 88
2019-09-24 20:00:00 18.5 24 Oeste 37 Oeste 0 949.7 0.1 80
2019-09-24 19:00:00 20.6 27 Oeste 37 Oeste 0 949.6 -0.1 71
2019-09-24 18:00:00 22.1 24 Noroeste 39 Noroeste 0 949.5 -0.7 62
2019-09-24 17:00:00 22.2 25 Noroeste 39 Norte 0 949.6 -1.1 60
2019-09-24 16:00:00 22.2 25 Noroeste 39 Noroeste 0 949.7 -1.7 61
2019-09-24 15:00:00 22.2 23 Noroeste 41 Norte 0 950.2 -1.5 63
2019-09-24 14:00:00 22.4 26 Noroeste 41 Norte 0 950.7 -1 62
2019-09-24 13:00:00 21.7 23 Noroeste 35 Noroeste 0 951.4 0.1 69
2019-09-24 12:00:00 19.8 27 Noroeste 37 Noroeste 0 951.7 1 82
2019-09-24 11:00:00 20.7 27 Noroeste 35 Noroeste 0 951.7 1.5 68
2019-09-24 10:00:00 20 25 Noroeste 39 Noroeste 0 951.3 1.4 67
2019-09-24 09:00:00 18.5 25 Noroeste 42 Noroeste 0 950.7 1.3 77
2019-09-24 08:00:00 17.3 23 Noroeste 37 Oeste 0 950.2 0.8 89
2019-09-24 07:00:00 17 23 Oeste 32 Oeste 0 949.9 0.4 96
2019-09-24 06:00:00 17.3 21 Noroeste 28 Oeste 0 949.4 -0.7 86
2019-09-24 05:00:00 17.5 18 Noroeste 26 Noroeste 0 949.4 -1.1 90
2019-09-24 04:00:00 17.2 17 Noroeste 32 Oeste 0 949.5 -1.3 95
2019-09-24 03:00:00 16.9 16 Oeste 22 Noroeste 0 950.1 -1 94
2019-09-24 02:00:00 16.6 15 Oeste 22 Oeste 0 950.5 -0.6 96
2019-09-24 01:00:00 16.5 13 Oeste 21 Noroeste 0 950.8 -0.1 95
2019-09-24 00:00:00 17 13 Noroeste 26 Oeste 0 951.1 0.5 92
2019-09-23 23:00:00 17.5 20 Oeste 30 Oeste 0 951.1 0.8 89
2019-09-23 22:00:00 17.6 21 Noroeste 32 Noroeste 0 950.9 0.9 85
2019-09-23 21:00:00 18 21 Noroeste 28 Noroeste 0 950.6 0.7 84
2019-09-23 20:00:00 18.9 17 Noroeste 33 Noroeste 0 950.3 0.3 79
2019-09-23 19:00:00 20.3 23 Noroeste 39 Noroeste 0 950 0.2 74
2019-09-23 18:00:00 21.2 27 Oeste 42 Oeste 0 949.9 0 71
2019-09-23 17:00:00 22.2 23 Noroeste 41 Noroeste 0 950 -0.3 60
2019-09-23 16:00:00 22.9 21 Noroeste 39 Noroeste 0 949.8 -0.8 57
2019-09-23 15:00:00 22.6 28 Noroeste 39 Noroeste 0 949.9 -0.7 63
2019-09-23 14:00:00 22.6 24 Noroeste 35 Noroeste 0 950.3 -0.3 63
2019-09-23 13:00:00 22.5 21 Noroeste 39 Noroeste 0 950.6 0.4 64
2019-09-23 12:00:00 21.4 27 Noroeste 39 Noroeste 0 950.6 0.8 70
2019-09-23 11:00:00 19.3 24 Noroeste 35 Noroeste 0 950.6 1.4 90
2019-09-23 10:00:00 18.3 24 Noroeste 37 Noroeste 0 950.2 1.1 94
2019-09-23 09:00:00 18.1 27 Oeste 37 Oeste 0 949.8 1 89
2019-09-23 08:00:00 17.5 23 Noroeste 35 Oeste 0 949.2 0.6 97
2019-09-23 07:00:00 17 23 Noroeste 32 Noroeste 0 949.1 0.3 91
2019-09-23 06:00:00 16.6 17 Oeste 26 Oeste 0 948.8 -0.4 95
2019-09-23 05:00:00 16.6 21 Oeste 26 Oeste 0 948.6 -0.7 95
2019-09-23 04:00:00 16.7 21 Oeste 26 Oeste 0 948.8 -0.9 91
2019-09-23 03:00:00 18.1 20 Noroeste 30 Oeste 0 949.2 -0.8 87
2019-09-23 02:00:00 18.1 23 Oeste 30 Oeste 0 949.3 -0.9 87
2019-09-23 01:00:00 18.3 15 Noroeste 22 Oeste 0 949.7 0 92
2019-09-23 00:00:00 18.4 7 Noroeste 15 Noroeste 0 950 0.9 94
2019-09-22 23:00:00 19.2 8 Noroeste 22 Noroeste 0 950.2 1.5 96
2019-09-22 22:00:00 19.5 14 Noroeste 24 Noroeste 0 949.7 1.4 96
2019-09-22 21:00:00 20.1 14 Noroeste 26 Noroeste 0 949.1 1 94
2019-09-22 20:00:00 20.3 16 Noroeste 28 Noroeste 0 948.7 0.6 95
2019-09-22 19:00:00 21.3 17 Noroeste 30 Noroeste 0 948.3 0.1 92
2019-09-22 18:00:00 22.6 20 Oeste 30 Oeste 0 948.1 -0.4 84
2019-09-22 17:00:00 23.5 19 Oeste 30 Oeste 0 948.1 -0.6 80
2019-09-22 16:00:00 24.4 19 Noroeste 32 Oeste 0 948.2 -0.9 76
2019-09-22 15:00:00 23.4 19 Noroeste 32 Noroeste 0 948.5 -0.8 79
2019-09-22 14:00:00 25.1 20 Noroeste 32 Noroeste 0 948.7 -0.7 71
2019-09-22 13:00:00 23.8 20 Oeste 32 Noroeste 0 949.1 0.1 76
2019-09-22 12:00:00 22.7 21 Noroeste 33 Oeste 0 949.3 0.7 81
2019-09-22 11:00:00 22.4 20 Noroeste 32 Noroeste 0 949.4 0.9 83
2019-09-22 10:00:00 22.5 17 Noroeste 22 Noroeste 0 949 0.9 73
2019-09-22 09:00:00 20.8 9 Oeste 21 Oeste 0 948.6 1 78
2019-09-22 08:00:00 17.8 18 Oeste 24 Oeste 0 948.5 1 89
2019-09-22 07:00:00 17 17 Oeste 21 Oeste 0 948.1 0.7 85
2019-09-22 06:00:00 17.9 17 Oeste 21 Oeste 0 947.6 0 83
2019-09-22 05:00:00 17.7 15 Oeste 21 Oeste 0 947.5 -0.5 84
2019-09-22 04:00:00 17.9 16 Oeste 18 Oeste 0 947.4 -0.9 78
2019-09-22 03:00:00 17.5 15 Oeste 18 Oeste 0 947.6 -0.7 78
2019-09-22 02:00:00 16.5 12 Oeste 21 Oeste 0 948 -0.4 87
2019-09-22 01:00:00 17.3 17 Oeste 26 Oeste 0 948.3 0.4 95
2019-09-22 00:00:00 17.8 17 Oeste 24 Oeste 0 948.3 1 97
2019-09-21 23:00:00 18.3 15 Oeste 22 Oeste 0 948.4 1.5 94
2019-09-21 22:00:00 18.4 17 Oeste 28 Noroeste 0 947.9 1.2 93
2019-09-21 21:00:00 19 19 Oeste 30 Oeste 0 947.3 0.5 88
2019-09-21 20:00:00 19.4 23 Noroeste 32 Noroeste 0 946.9 0.3 87
2019-09-21 19:00:00 21.3 19 Noroeste 28 Noroeste 0 946.7 0 75
2019-09-21 18:00:00 22.2 15 Oeste 26 Noroeste 0 946.8 -0.3 76
2019-09-21 17:00:00 23.3 19 Noroeste 28 Noroeste 0 946.6 -0.6 70
2019-09-21 16:00:00 23.7 18 Noroeste 30 Noroeste 0 946.7 -0.9 65
2019-09-21 15:00:00 23.7 17 Noroeste 32 Norte 0 947.1 -0.7 63
2019-09-21 14:00:00 23.6 20 Noroeste 30 Noroeste 0 947.2 -0.5 60
2019-09-21 13:00:00 24 16 Noroeste 30 Noroeste 0 947.6 0.3 57
2019-09-21 12:00:00 22.6 15 Noroeste 32 Noroeste 0 947.8 1 64
2019-09-21 11:00:00 22.2 17 Oeste 26 Oeste 0 947.7 1.4 62
2019-09-21 10:00:00 20.4 18 Oeste 26 Oeste 0 947.3 1.2 72
2019-09-21 09:00:00 17.7 19 Oeste 24 Oeste 0 946.8 1.1 85
2019-09-21 08:00:00 14.7 18 Oeste 22 Oeste 0 946.3 0.7 90
2019-09-21 07:00:00 15.6 8 Oeste 17 Oeste 0 946.1 0.4 90
2019-09-21 06:00:00 16.2 13 Oeste 24 Oeste 0 945.7 -0.3 89
2019-09-21 05:00:00 15.9 20 Oeste 24 Oeste 0 945.6 -0.6 94
2019-09-21 04:00:00 15.6 15 Oeste 22 Oeste 0 945.7 -1 97
2019-09-21 03:00:00 16.3 18 Oeste 26 Oeste 0 946 -1.1 95
2019-09-21 02:00:00 16 15 Oeste 22 Oeste 0 946.2 -1.3 95
2019-09-21 01:00:00 16.5 12 Oeste 28 Oeste 0 946.7 -0.5 97
2019-09-21 00:00:00 16.9 24 Oeste 30 Oeste 0 947.1 0.4 97
2019-09-20 23:00:00 17.4 21 Noroeste 26 Noroeste 0 947.5 1.1 94
2019-09-20 22:00:00 17.2 13 Oeste 26 Oeste 0 947.2 1.1 93
2019-09-20 21:00:00 18.2 21 Oeste 32 Oeste 0 946.7 0.7 90
2019-09-20 20:00:00 18.9 24 Oeste 33 Noroeste 0 946.4 0.2 86
2019-09-20 19:00:00 19.9 27 Noroeste 41 Oeste 0 946.1 -0.4 85
2019-09-20 18:00:00 21.3 22 Noroeste 33 Noroeste 0 946 -0.9 76
2019-09-20 17:00:00 22.9 20 Noroeste 28 Noroeste 0 946.2 -1.3 66
2019-09-20 16:00:00 22.7 21 Noroeste 30 Noroeste 0 946.5 -1.4 70
2019-09-20 15:00:00 23 19 Noroeste 33 Noroeste 0 946.9 -1.4 65
2019-09-20 14:00:00 23.3 20 Oeste 32 Noroeste 0 947.5 -0.9 63
2019-09-20 13:00:00 22.9 16 Noroeste 30 Oeste 0 947.9 0 61
2019-09-20 12:00:00 22.7 19 Oeste 26 Oeste 0 948.3 1 67
2019-09-20 11:00:00 21 8 Oeste 28 Oeste 0 948.4 1.6 73
2019-09-20 10:00:00 19.4 21 Oeste 33 Oeste 0 947.9 1.2 83
2019-09-20 09:00:00 18.4 21 Oeste 35 Oeste 0 947.3 0.9 89
2019-09-20 08:00:00 17.2 22 Oeste 33 Oeste 0 946.8 0.2 94
2019-09-20 07:00:00 17.3 22 Oeste 37 Oeste 0 946.7 -0.4 94
2019-09-20 06:00:00 17.1 26 Oeste 37 Oeste 0 946.4 -1.2 95
2019-09-20 05:00:00 16.9 23 Oeste 35 Oeste 0 946.6 -1.5 93
2019-09-20 04:00:00 17.2 29 Oeste 41 Oeste 0 947.1 -1.2 94
2019-09-20 03:00:00 17.2 28 Oeste 37 Oeste 0 947.6 -0.8 95
2019-09-20 02:00:00 17.4 27 Oeste 35 Oeste 0 948.1 -0.5 92
2019-09-20 01:00:00 17.3 27 Oeste 41 Noroeste 0 948.3 0 94
2019-09-20 00:00:00 17.6 30 Oeste 42 Oeste 0 948.4 0.7 93
2019-09-19 23:00:00 17.6 27 Oeste 35 Oeste 0 948.6 1.3 94
2019-09-19 22:00:00 17.9 26 Noroeste 35 Noroeste 0 948.3 1.3 93
2019-09-19 21:00:00 18.3 26 Noroeste 39 Oeste 0 947.7 0.9 91
2019-09-19 20:00:00 18.5 26 Noroeste 41 Noroeste 0 947.3 0.3 90
2019-09-19 19:00:00 20.1 24 Noroeste 35 Noroeste 0 947 0.1 79
2019-09-19 18:00:00 22.1 25 Oeste 33 Oeste 0 946.8 -0.6 70
2019-09-19 17:00:00 22.3 24 Noroeste 33 Oeste 0 947 -0.6 68
2019-09-19 16:00:00 22.7 24 Noroeste 37 Oeste 0 946.9 -1.1 68
2019-09-19 15:00:00 22.4 27 Oeste 42 Noroeste 0 947.4 -1 66
2019-09-19 14:00:00 22.4 30 Noroeste 46 Oeste 0 947.6 -0.6 66
2019-09-19 13:00:00 22.5 27 Noroeste 41 Noroeste 0 948 0.2 67
2019-09-19 12:00:00 21.6 22 Noroeste 35 Noroeste 0 948.4 1 71
2019-09-19 11:00:00 20.5 26 Oeste 39 Oeste 0 948.2 1.1 75
2019-09-19 10:00:00 19.4 25 Oeste 33 Oeste 0 947.8 0.9 82
2019-09-19 09:00:00 18 23 Oeste 33 Oeste 0 947.4 0.8 93
2019-09-19 08:00:00 17 22 Oeste 32 Noroeste 0 947.1 0.4 93
2019-09-19 07:00:00 17.1 21 Oeste 33 Oeste 0 946.9 -0.3 95
2019-09-19 06:00:00 17 25 Oeste 35 Oeste 0 946.6 -0.8 95
2019-09-19 05:00:00 17.4 21 Noroeste 33 Noroeste 0 946.7 -1 96
2019-09-19 04:00:00 16.7 23 Oeste 28 Oeste 0 947.2 -0.7 97
2019-09-19 03:00:00 16.6 18 Oeste 24 Oeste 0 947.4 -0.9 96
2019-09-19 02:00:00 16.4 17 Oeste 21 Oeste 0 947.7 -0.6 93
2019-09-19 01:00:00 16.1 16 Oeste 21 Oeste 0 947.9 0 94
2019-09-19 00:00:00 16.6 12 Oeste 18 Oeste 0 948.3 1.1 95